.
WxDataArchive / Data Records for 2015-04-26
2015-04-25 April 2015 2015-04-27

Data Records for Sunday, 26 April 2015

Time	Temp	Chill	HIndex	Humid	Dewpt	 Wind 	HiWind	WindDir	Rain 	Barom
-----	----	-----	------	-----	-----	------	------	-------	-----	-----
00:00	41.1	41.1	41.1	72	32.8	0	0	---	0.00	29.794 
00:05	41.1	41.1	41.1	72	32.8	0	2	90	0.00	29.794 
00:10	40.9	40.9	40.9	71	32.2	0	2	90	0.00	29.794 
00:15	40.9	40.9	40.9	71	32.2	0	1	90	0.00	29.797 
00:20	40.9	40.9	40.9	71	32.2	0	2	90	0.00	29.797 
00:25	40.9	40.9	40.9	71	32.2	0	0	---	0.00	29.797 
00:30	40.9	40.9	40.9	71	32.2	0	0	---	0.00	29.798 
00:35	40.9	40.9	40.9	71	32.2	0	0	---	0.00	29.798 
00:40	40.8	40.8	40.8	71	32.1	0	0	---	0.00	29.798 
00:45	40.8	40.8	40.8	72	32.5	0	0	---	0.00	29.799 
00:50	40.9	40.9	40.9	71	32.2	0	1	90	0.00	29.799 
00:55	40.9	40.9	40.9	70	31.9	0	0	---	0.00	29.799 
01:00	41.1	41.1	41.1	70	32.1	0	2	90	0.00	29.805 
01:05	41.1	41.1	41.1	70	32.1	0	0	---	0.00	29.805 
01:10	41.1	41.1	41.1	69	31.7	0	1	90	0.00	29.805 
01:15	41.1	41.1	41.1	70	32.1	0	1	90	0.00	29.803 
01:20	41.1	41.1	41.1	69	31.7	0	1	90	0.00	29.803 
01:25	41.1	41.1	41.1	70	32.1	0	0	---	0.00	29.803 
01:30	40.9	40.9	40.9	69	31.5	0	1	90	0.00	29.804 
01:35	40.8	40.8	40.8	69	31.4	0	1	90	0.00	29.804 
01:40	40.5	40.5	40.5	69	31.1	0	1	90	0.00	29.804 
01:45	40.3	40.3	40.3	69	31.0	0	1	90	0.00	29.804 
01:50	40.1	40.1	40.1	69	30.8	0	0	---	0.00	29.804 
01:55	39.9	39.9	39.9	69	30.6	0	2	90	0.00	29.804 
02:00	39.6	39.6	39.6	69	30.3	0	1	90	0.00	29.800 
02:05	39.5	39.5	39.5	69	30.2	0	0	---	0.00	29.800 
02:10	39.3	39.3	39.3	70	30.3	0	2	90	0.00	29.800 
02:15	39.2	39.2	39.2	69	29.9	0	1	90	0.00	29.800 
02:20	39.2	39.2	39.2	69	29.9	0	0	---	0.00	29.800 
02:25	39.1	39.1	39.1	70	30.2	0	1	90	0.00	29.800 
02:30	38.9	38.9	38.9	70	30.0	0	0	---	0.00	29.803 
02:35	38.9	38.9	38.9	70	30.0	0	0	---	0.00	29.803 
02:40	38.8	38.8	38.8	70	29.9	0	1	90	0.00	29.803 
02:45	38.5	38.5	38.5	71	29.9	0	0	---	0.00	29.808 
02:50	38.3	38.3	38.3	71	29.7	0	0	---	0.00	29.808 
02:55	38.2	38.2	38.2	72	30.0	0	0	---	0.00	29.808 
03:00	37.9	37.9	37.9	73	30.0	0	0	---	0.00	29.803 
03:05	37.8	37.8	37.8	73	29.9	0	1	90	0.00	29.803 
03:10	37.8	37.8	37.8	74	30.3	0	0	---	0.00	29.803 
03:15	37.6	37.6	37.6	74	30.1	0	0	---	0.00	29.801 
03:20	37.5	37.5	37.5	74	30.0	0	0	---	0.00	29.801 
03:25	37.5	37.5	37.5	75	30.3	0	0	---	0.00	29.801 
03:30	37.3	37.3	37.3	75	30.1	0	0	---	0.00	29.805 
03:35	37.3	37.3	37.3	76	30.4	0	0	---	0.00	29.805 
03:40	37.5	37.5	37.5	76	30.6	0	1	90	0.00	29.805 
03:45	37.6	37.6	37.6	75	30.4	0	1	90	0.00	29.809 
03:50	37.6	37.6	37.6	75	30.4	0	1	90	0.00	29.809 
03:55	37.6	37.6	37.6	75	30.4	0	0	---	0.00	29.809 
04:00	37.6	37.6	37.6	76	30.7	0	2	90	0.00	29.813 
04:05	37.6	37.6	37.6	76	30.7	0	1	90	0.00	29.813 
04:10	37.6	37.6	37.6	75	30.4	0	1	90	0.00	29.813 
04:15	37.6	37.6	37.6	75	30.4	0	1	90	0.00	29.818 
04:20	37.5	37.5	37.5	75	30.3	0	0	---	0.00	29.818 
04:25	37.3	37.3	37.3	75	30.1	0	0	---	0.00	29.818 
04:30	37.2	37.2	37.2	75	30.0	0	2	90	0.00	29.820 
04:35	37.2	37.2	37.2	75	30.0	0	1	90	0.00	29.820 
04:40	37.2	37.2	37.2	75	30.0	0	0	---	0.00	29.820 
04:45	37.2	37.2	37.2	74	29.7	0	1	90	0.00	29.822 
04:50	37.2	37.2	37.2	74	29.7	0	1	90	0.00	29.822 
04:55	37.0	37.0	37.0	74	29.5	0	1	90	0.00	29.822 
05:00	37.0	37.0	37.0	74	29.5	0	0	---	0.00	29.827 
05:05	36.9	36.9	36.9	74	29.4	0	2	90	0.00	29.827 
05:10	37.0	37.0	37.0	73	29.2	0	1	90	0.00	29.827 
05:15	37.0	37.0	37.0	73	29.2	0	1	90	0.00	29.834 
05:20	37.0	37.0	37.0	73	29.2	0	3	90	0.00	29.834 
05:25	36.9	36.9	36.9	73	29.1	0	2	90	0.00	29.834 
05:30	36.9	36.9	36.9	72	28.7	0	0	---	0.00	29.839 
05:35	36.9	36.9	36.9	72	28.7	0	2	90	0.00	29.839 
05:40	36.8	36.8	36.8	72	28.6	0	0	---	0.00	29.839 
05:45	36.6	36.6	36.6	72	28.4	0	1	90	0.00	29.842 
05:50	36.6	36.6	36.6	71	28.1	0	2	90	0.00	29.842 
05:55	36.5	36.5	36.5	71	28.0	0	2	90	0.00	29.842 
06:00	36.5	36.5	36.5	71	28.0	0	1	90	0.00	29.844 
06:05	36.5	36.5	36.5	71	28.0	0	3	45	0.00	29.844 
06:10	36.3	36.3	36.3	71	27.8	0	2	45	0.00	29.844 
06:15	36.3	36.3	36.3	71	27.8	0	1	45	0.00	29.854 
06:20	36.3	36.3	36.3	71	27.8	0	2	45	0.00	29.854 
06:25	36.3	36.3	36.3	71	27.8	0	2	45	0.00	29.854 
06:30	36.2	36.2	36.2	71	27.7	0	2	45	0.00	29.854 
06:35	36.2	36.2	36.2	71	27.7	0	2	45	0.00	29.854 
06:40	36.2	36.2	36.2	71	27.7	1	5	45	0.00	29.854 
06:45	36.2	36.2	36.2	71	27.7	0	3	292	0.00	29.863 
06:50	36.0	36.0	36.0	71	27.5	0	2	292	0.00	29.863 
06:55	35.9	35.9	35.9	71	27.4	0	1	292	0.00	29.863 
07:00	35.9	35.9	35.9	72	27.8	0	2	292	0.00	29.868 
07:05	35.9	35.9	35.9	71	27.4	0	3	68	0.00	29.868 
07:10	35.9	35.9	35.9	71	27.4	0	3	68	0.00	29.868 
07:15	36.0	36.0	36.0	71	27.5	0	2	68	0.00	29.870 
07:20	36.2	36.2	36.2	71	27.7	0	3	68	0.00	29.870 
07:25	36.3	36.3	36.3	70	27.5	0	3	68	0.00	29.870 
07:30	36.5	36.5	36.5	70	27.7	1	3	68	0.00	29.878 
07:35	36.8	36.8	36.8	69	27.6	0	3	68	0.00	29.878 
07:40	36.9	36.9	36.9	69	27.7	1	4	22	0.00	29.878 
07:45	37.3	37.3	37.3	69	28.1	0	2	68	0.00	29.882 
07:50	37.9	37.9	37.9	67	27.9	1	4	68	0.00	29.882 
07:55	38.3	38.3	38.3	66	28.0	1	4	45	0.00	29.882 
08:00	38.9	38.9	38.9	65	28.2	1	5	90	0.00	29.882 
08:05	39.3	39.3	39.3	65	28.5	1	4	45	0.00	29.882 
08:10	39.6	39.6	39.6	64	28.4	1	4	112	0.00	29.882 
08:15	40.1	40.1	40.1	63	28.5	1	4	90	0.00	29.882 
08:20	40.5	40.5	40.5	62	28.5	1	4	22	0.00	29.882 
08:25	40.8	40.8	40.8	62	28.8	1	4	22	0.00	29.882 
08:30	41.1	41.1	41.1	61	28.7	1	5	68	0.00	29.888 
08:35	41.5	41.5	41.5	60	28.7	2	4	68	0.00	29.888 
08:40	41.8	41.8	41.8	60	28.9	1	5	22	0.00	29.888 
08:45	42.2	42.2	42.2	59	28.9	1	3	45	0.00	29.895 
08:50	42.5	42.5	42.5	59	29.2	1	5	68	0.00	29.895 
08:55	42.8	42.8	42.8	59	29.5	1	4	90	0.00	29.895 
09:00	43.1	43.1	43.1	59	29.8	1	4	0	0.00	29.895 
09:05	43.5	43.5	43.5	58	29.7	1	4	112	0.00	29.895 
09:10	43.9	43.9	43.9	58	30.1	1	4	45	0.00	29.895 
09:15	44.2	44.2	44.2	57	29.9	2	6	68	0.00	29.897 
09:20	44.5	44.5	44.5	57	30.2	1	6	45	0.00	29.897 
09:25	44.6	44.6	44.6	57	30.3	2	7	45	0.00	29.897 
09:30	45.1	45.1	45.1	56	30.4	1	4	68	0.00	29.904 
09:35	45.4	45.4	45.4	55	30.2	2	7	45	0.00	29.904 
09:40	45.8	45.8	45.8	55	30.6	2	7	112	0.00	29.904 
09:45	46.2	46.2	46.2	54	30.5	1	4	45	0.00	29.907 
09:50	46.5	46.5	46.5	54	30.8	2	4	45	0.00	29.907 
09:55	46.8	46.8	46.8	52	30.1	2	9	68	0.00	29.907 
10:00	47.1	47.1	47.1	53	30.9	2	6	68	0.00	29.907 
10:05	47.4	47.4	47.4	52	30.7	2	7	112	0.00	29.907 
10:10	47.9	47.9	47.9	54	32.1	1	5	45	0.00	29.907 
10:15	48.6	48.6	48.6	52	31.8	2	5	112	0.00	29.905 
10:20	48.8	48.8	48.8	53	32.4	1	7	90	0.00	29.905 
10:25	49.1	49.1	49.1	51	31.8	1	4	135	0.00	29.905 
10:30	49.2	49.2	49.2	49	30.9	2	7	45	0.00	29.909 
10:35	49.5	49.5	49.5	48	30.6	1	5	0	0.00	29.909 
10:40	49.8	49.8	49.8	50	31.9	1	3	90	0.00	29.909 
10:45	50.1	50.1	50.1	50	32.2	1	5	45	0.00	29.909 
10:50	50.2	50.2	50.2	49	31.8	2	5	45	0.00	29.909 
10:55	50.5	50.5	50.5	49	32.1	1	4	338	0.00	29.909 
11:00	50.8	50.8	50.8	49	32.3	1	4	90	0.00	29.911 
11:05	51.1	51.1	51.1	46	31.0	2	9	45	0.00	29.911 
11:10	51.1	51.1	51.1	45	30.5	1	5	0	0.00	29.911 
11:15	51.3	51.3	51.3	44	30.1	1	4	90	0.00	29.913 
11:20	51.7	51.7	51.7	47	32.1	2	5	90	0.00	29.913 
11:25	52.0	52.0	52.0	46	31.9	1	5	112	0.00	29.913 
11:30	52.2	52.2	52.2	46	32.1	1	4	338	0.00	29.914 
11:35	52.2	52.2	52.2	43	30.4	1	5	22	0.00	29.914 
11:40	52.2	52.2	52.2	42	29.8	2	7	45	0.00	29.914 
11:45	52.0	52.0	52.0	41	29.0	2	5	338	0.00	29.914 
11:50	52.2	52.2	52.2	45	31.5	1	7	22	0.00	29.914 
11:55	52.5	52.5	52.5	43	30.7	2	7	338	0.00	29.914 
12:00	52.5	52.5	52.5	43	30.7	2	6	338	0.00	29.915 
12:05	52.8	52.8	52.8	42	30.3	2	5	68	0.00	29.915 
12:10	52.9	52.9	52.9	43	31.0	1	5	68	0.00	29.915 
12:15	53.2	53.2	53.2	41	30.1	2	7	45	0.00	29.916 
12:20	52.9	52.9	52.9	41	29.8	1	5	338	0.00	29.916 
12:25	53.2	53.2	53.2	43	31.3	1	7	338	0.00	29.916 
12:30	53.3	53.3	53.3	43	31.4	1	3	0	0.00	29.908 
12:35	53.5	53.5	53.5	45	32.7	1	4	0	0.00	29.908 
12:40	53.5	53.5	53.5	41	30.4	1	6	292	0.00	29.908 
12:45	53.9	53.9	53.9	42	31.3	1	3	338	0.00	29.908 
12:50	53.9	53.9	53.9	41	30.7	2	7	315	0.00	29.908 
12:55	54.2	54.2	54.2	43	32.2	1	5	315	0.00	29.908 
13:00	54.7	54.7	54.7	41	31.5	2	9	112	0.00	29.905 
13:05	54.8	54.8	54.8	43	32.7	1	5	338	0.00	29.905 
13:10	55.1	55.1	55.1	40	31.2	1	5	338	0.00	29.905 
13:15	54.5	54.5	54.5	42	31.9	2	6	315	0.00	29.906 
13:20	54.5	54.5	54.5	41	31.3	1	5	315	0.00	29.906 
13:25	54.5	54.5	54.5	43	32.5	2	6	0	0.00	29.906 
13:30	54.8	54.8	54.8	41	31.6	1	5	22	0.00	29.905 
13:35	54.7	54.7	54.7	38	29.6	2	6	338	0.00	29.905 
13:40	55.0	55.0	55.0	44	33.5	1	3	338	0.00	29.905 
13:45	55.3	55.3	55.3	39	30.8	1	7	315	0.00	29.902 
13:50	55.3	55.3	55.3	40	31.4	2	6	338	0.00	29.902 
13:55	55.4	55.4	55.4	40	31.5	1	6	338	0.00	29.902 
14:00	55.3	55.3	55.3	40	31.4	2	6	338	0.00	29.901 
14:05	55.7	55.7	55.7	44	34.1	2	6	0	0.00	29.901 
14:10	56.0	56.0	56.0	40	32.0	1	4	22	0.00	29.901 
14:15	56.0	56.0	56.0	42	33.2	2	6	338	0.00	29.900 
14:20	56.3	56.3	56.3	40	32.3	1	6	0	0.00	29.900 
14:25	56.2	56.2	56.2	40	32.2	1	6	22	0.00	29.900 
14:30	56.3	56.3	56.3	39	31.7	1	3	292	0.00	29.895 
14:35	56.5	56.5	56.5	40	32.5	2	6	292	0.00	29.895 
14:40	56.5	56.5	56.5	39	31.8	1	6	0	0.00	29.895 
14:45	56.6	56.6	56.6	41	33.2	1	3	292	0.00	29.890 
14:50	56.7	56.7	56.7	38	31.4	1	3	292	0.00	29.890 
14:55	56.6	56.6	56.6	40	32.6	1	4	338	0.00	29.890 
15:00	56.9	56.9	56.9	38	31.6	2	9	112	0.00	29.889 
15:05	57.0	57.0	57.0	40	32.9	2	9	338	0.00	29.889 
15:10	57.0	57.0	57.0	38	31.6	1	5	45	0.00	29.889 
15:15	57.2	57.2	57.2	40	33.1	2	6	45	0.00	29.887 
15:20	57.0	57.0	57.0	41	33.5	1	13	45	0.00	29.887 
15:25	56.9	56.9	56.9	40	32.8	2	7	338	0.00	29.887 
15:30	56.9	56.9	56.9	39	32.2	1	6	338	0.00	29.885 
15:35	56.9	56.9	56.9	38	31.6	2	7	315	0.00	29.885 
15:40	57.3	57.3	57.3	41	33.8	1	3	292	0.00	29.885 
15:45	57.3	57.3	57.3	37	31.3	2	7	0	0.00	29.883 
15:50	57.0	57.0	57.0	36	30.3	2	5	338	0.00	29.883 
15:55	57.5	57.5	57.5	37	31.4	1	4	45	0.00	29.883 
16:00	57.3	57.3	57.3	37	31.3	1	4	0	0.00	29.881 
16:05	57.0	57.0	57.0	37	31.0	1	3	0	0.00	29.881 
16:10	57.0	57.0	57.0	39	32.3	1	4	45	0.00	29.881 
16:15	57.0	57.0	57.0	38	31.6	1	5	338	0.00	29.879 
16:20	57.5	57.5	57.5	38	32.1	2	5	68	0.00	29.879 
16:25	57.6	57.6	57.6	37	31.5	1	4	315	0.00	29.879 
16:30	57.8	57.8	57.8	37	31.7	2	7	68	0.00	29.876 
16:35	58.0	58.0	58.0	36	31.2	2	8	90	0.00	29.876 
16:40	58.1	58.1	58.1	38	32.6	2	6	292	0.00	29.876 
16:45	58.0	58.0	58.0	35	30.5	2	7	292	0.00	29.872 
16:50	57.8	57.8	57.8	35	30.3	2	7	0	0.00	29.872 
16:55	57.5	57.5	57.5	36	30.8	1	5	0	0.00	29.872 
17:00	57.8	57.8	57.8	35	30.3	0	2	338	0.00	29.869 
17:05	58.4	58.4	58.4	34	30.1	2	5	338	0.00	29.869 
17:10	58.7	58.7	58.7	35	31.1	1	3	338	0.00	29.869 
17:15	59.2	59.2	59.2	35	31.6	1	5	45	0.00	29.868 
17:20	59.2	59.2	59.2	34	30.8	0	2	338	0.00	29.868 
17:25	59.3	59.3	59.3	33	30.2	1	3	338	0.00	29.868 
17:30	59.6	59.6	59.6	36	32.6	1	5	112	0.00	29.868 
17:35	59.5	59.5	59.5	32	29.6	2	5	338	0.00	29.868 
17:40	59.3	59.3	59.3	35	31.7	1	5	338	0.00	29.868 
17:45	59.0	59.0	59.0	35	31.4	1	6	45	0.00	29.869 
17:50	58.7	58.7	58.7	33	29.7	2	6	338	0.00	29.869 
17:55	58.7	58.7	58.7	36	31.8	1	5	45	0.00	29.869 
18:00	58.7	58.7	58.7	31	28.1	1	5	0	0.00	29.872 
18:05	58.6	58.6	58.6	35	31.0	1	3	315	0.00	29.872 
18:10	58.4	58.4	58.4	34	30.1	1	5	338	0.00	29.872 
18:15	58.1	58.1	58.1	33	29.2	1	4	292	0.00	29.873 
18:20	58.1	58.1	58.1	35	30.6	0	2	292	0.00	29.873 
18:25	58.0	58.0	58.0	33	29.1	2	6	338	0.00	29.873 
18:30	57.6	57.6	57.6	33	28.7	1	6	45	0.00	29.880 
18:35	57.2	57.2	57.2	34	29.1	1	5	45	0.00	29.880 
18:40	56.7	56.7	56.7	34	28.7	1	5	135	0.00	29.880 
18:45	56.7	56.7	56.7	33	27.9	2	4	338	0.00	29.886 
18:50	56.3	56.3	56.3	34	28.3	2	7	315	0.00	29.886 
18:55	55.9	55.9	55.9	34	27.9	1	6	315	0.00	29.886 
19:00	55.9	55.9	55.9	36	29.3	1	6	270	0.00	29.886 
19:05	56.2	56.2	56.2	35	28.9	1	3	270	0.00	29.886 
19:10	56.3	56.3	56.3	36	29.7	1	4	270	0.00	29.886 
19:15	56.3	56.3	56.3	34	28.3	1	5	292	0.00	29.884 
19:20	56.2	56.2	56.2	35	28.9	1	3	90	0.00	29.884 
19:25	56.0	56.0	56.0	35	28.7	1	4	90	0.00	29.884 
19:30	55.9	55.9	55.9	35	28.7	1	4	292	0.00	29.884 
19:35	55.7	55.7	55.7	36	29.2	1	4	68	0.00	29.884 
19:40	55.6	55.6	55.6	36	29.1	1	4	22	0.00	29.884 
19:45	55.4	55.4	55.4	36	28.9	0	3	270	0.00	29.884 
19:50	55.3	55.3	55.3	37	29.5	1	5	315	0.00	29.884 
19:55	55.0	55.0	55.0	36	28.5	1	4	315	0.00	29.884 
20:00	54.8	54.8	54.8	37	29.0	0	2	315	0.00	29.886 
20:05	54.7	54.7	54.7	37	28.9	1	4	292	0.00	29.886 
20:10	54.5	54.5	54.5	38	29.4	0	2	292	0.00	29.886 
20:15	54.2	54.2	54.2	39	29.8	0	1	292	0.00	29.885 
20:20	53.9	53.9	53.9	39	29.5	0	1	292	0.00	29.885 
20:25	53.6	53.6	53.6	39	29.3	0	2	292	0.00	29.885 
20:30	53.3	53.3	53.3	40	29.6	0	0	---	0.00	29.886 
20:35	52.9	52.9	52.9	41	29.8	0	2	292	0.00	29.886 
20:40	52.8	52.8	52.8	41	29.8	0	1	292	0.00	29.886 
20:45	52.6	52.6	52.6	41	29.6	0	2	292	0.00	29.889 
20:50	52.5	52.5	52.5	41	29.5	0	2	292	0.00	29.889 
20:55	52.2	52.2	52.2	42	29.8	0	0	---	0.00	29.889 
21:00	51.9	51.9	51.9	42	29.5	0	0	---	0.00	29.891 
21:05	51.6	51.6	51.6	43	29.8	0	0	---	0.00	29.891 
21:10	51.0	51.0	51.0	44	29.9	0	0	---	0.00	29.891 
21:15	50.5	50.5	50.5	45	30.0	0	0	---	0.00	29.893 
21:20	50.1	50.1	50.1	46	30.1	0	0	---	0.00	29.893 
21:25	49.6	49.6	49.6	48	30.7	0	0	---	0.00	29.893 
21:30	49.1	49.1	49.1	49	30.8	0	0	---	0.00	29.899 
21:35	48.6	48.6	48.6	50	30.8	0	0	---	0.00	29.899 
21:40	48.2	48.2	48.2	52	31.4	0	0	---	0.00	29.899 
21:45	47.9	47.9	47.9	53	31.6	0	0	---	0.00	29.900 
21:50	47.6	47.6	47.6	53	31.3	0	0	---	0.00	29.900 
21:55	47.6	47.6	47.6	54	31.8	0	0	---	0.00	29.900 
22:00	47.4	47.4	47.4	54	31.6	0	0	---	0.00	29.903 
22:05	47.4	47.4	47.4	54	31.6	0	0	---	0.00	29.903 
22:10	47.3	47.3	47.3	54	31.5	0	0	---	0.00	29.903 
22:15	47.3	47.3	47.3	55	32.0	0	0	---	0.00	29.901 
22:20	47.4	47.4	47.4	57	32.9	0	3	292	0.00	29.901 
22:25	48.6	48.6	48.6	52	31.8	1	4	292	0.00	29.901 
22:30	49.5	49.5	49.5	50	31.6	1	3	292	0.00	29.910 
22:35	50.1	50.1	50.1	49	31.7	1	3	0	0.00	29.910 
22:40	50.2	50.2	50.2	48	31.3	1	3	338	0.00	29.910 
22:45	50.4	50.4	50.4	48	31.5	1	3	338	0.00	29.911 
22:50	50.4	50.4	50.4	47	30.9	1	4	315	0.00	29.911 
22:55	50.4	50.4	50.4	48	31.5	1	3	292	0.00	29.911 
23:00	50.4	50.4	50.4	48	31.5	1	3	292	0.00	29.912 
23:05	50.2	50.2	50.2	48	31.3	1	3	292	0.00	29.912 
23:10	50.1	50.1	50.1	48	31.2	1	3	292	0.00	29.912 
23:15	50.1	50.1	50.1	48	31.2	1	3	292	0.00	29.909 
23:20	49.9	49.9	49.9	48	31.0	1	3	292	0.00	29.909 
23:25	49.9	49.9	49.9	48	31.0	0	1	292	0.00	29.909 
23:30	49.8	49.8	49.8	48	30.9	0	2	292	0.00	29.908 
23:35	49.8	49.8	49.8	48	30.9	0	2	292	0.00	29.908 
23:40	49.6	49.6	49.6	48	30.7	0	2	292	0.00	29.908 
23:45	49.6	49.6	49.6	48	30.7	1	3	292	0.00	29.907 
23:50	49.5	49.5	49.5	48	30.6	0	2	292	0.00	29.907 
23:55	49.5	49.5	49.5	48	30.6	0	2	292	0.00	29.907 

CoCoRaHS
IN-AL-39
A2 Web Hosting
Creative Commons License
GoDaddy
search engine by freefind advanced

loaded 2018-11-20 08:39:44 • last modified 2010-11-18 10:43:29
Privacy PolicyDisclaimer
• wx.awcolley.com is powered by PmWiki v.2002016 •
• all content (unless otherwise noted) © 2018 A W Colley